Time;durP1;ratioP1;P1;durP2;ratioP2;P2;SDS_P1;SDS_P2;PMS_P1;PMS_P2;Temp;Humidity;BMP_temperature;BMP_pressure;BME280_temperature;BME280_humidity;BME280_pressure;Samples;Min_cycle;Max_cycle;Signal;HPM_P1;HPM_P2
2023/05/09 00:02:22;303298.00;1.01;523.59;71313.00;0.24;124.03;;;;;19.00;5.40;;;;;;2552974;56;971;-86
2023/05/09 00:04:51;746517.00;2.49;1288.00;91487.00;0.30;158.88;;;;;19.10;5.60;;;;;;2552879;56;1947;-87
2023/05/09 00:07:27;868502.00;2.90;1500.86;89245.00;0.30;155.00;;;;;19.20;5.60;;;;;;2552725;56;1460;-86
2023/05/09 00:09:56;126689688.00;422.30;82384320.00;37049.00;0.12;64.78;;;;;19.20;5.60;;;;;;2552822;56;1465;-85
2023/05/09 00:12:28;297650.00;0.99;513.88;18151.00;0.06;32.07;;;;;19.20;5.50;;;;;;2552787;56;904;-86
2023/05/09 00:15:02;507584.00;1.69;874.88;0.00;0.00;0.62;;;;;19.20;5.50;;;;;;2550699;56;1405;-87
2023/05/09 00:17:31;136943.00;0.46;237.30;0.00;0.00;0.62;;;;;19.20;5.40;;;;;;2552899;56;1174;-86
2023/05/09 00:20:00;484831.00;1.62;835.71;0.00;0.00;0.62;;;;;18.90;5.40;;;;;;2552787;56;1574;-86
2023/05/09 00:22:27;192317.00;0.64;332.70;0.00;0.00;0.62;;;;;18.80;6.80;;;;;;2550757;56;1112;-85
2023/05/09 00:25:00;377184.00;1.26;650.58;0.00;0.00;0.62;;;;;18.70;7.10;;;;;;2552827;56;1956;-86
2023/05/09 00:27:29;225950.00;0.75;390.58;0.00;0.00;0.62;;;;;18.70;6.90;;;;;;2552811;56;1415;-85
2023/05/09 00:29:56;251872.00;0.84;435.17;0.00;0.00;0.62;;;;;18.60;6.20;;;;;;2550712;56;1092;-86
2023/05/09 00:32:23;422778.00;1.41;728.97;0.00;0.00;0.62;;;;;18.50;7.20;;;;;;2552870;56;1756;-86
2023/05/09 00:34:51;212981.00;0.71;368.27;21195.00;0.07;37.34;;;;;18.70;7.40;;;;;;2552691;56;1725;-87
2023/05/09 00:37:20;253427.00;0.84;437.84;0.00;0.00;0.62;;;;;18.80;6.50;;;;;;2552805;56;1463;-87
2023/05/09 00:39:47;353167.00;1.18;609.30;0.00;0.00;0.62;;;;;18.90;6.40;;;;;;2550686;56;1018;-87
2023/05/09 00:42:17;273087.00;0.91;471.65;0.00;0.00;0.62;;;;;18.90;6.00;;;;;;2552770;56;1404;-86
2023/05/09 00:44:46;88734.00;0.30;154.12;0.00;0.00;0.62;;;;;18.60;6.70;;;;;;2552735;56;1905;-87
2023/05/09 00:47:13;198554.00;0.66;343.43;0.00;0.00;0.62;;;;;18.70;6.90;;;;;;2552702;56;1615;-86
2023/05/09 00:49:40;80836.00;0.27;140.48;0.00;0.00;0.62;;;;;18.30;7.60;;;;;;2552867;56;1582;-87
2023/05/09 00:52:07;69804.00;0.23;121.42;0.00;0.00;0.62;;;;;18.10;8.20;;;;;;2552804;56;946;-85
2023/05/09 00:54:34;446104.00;1.49;769.08;150230.00;0.50;260.20;;;;;18.30;8.10;;;;;;2550558;56;1325;-87
2023/05/09 00:57:04;86338.00;0.29;149.98;0.00;0.00;0.62;;;;;18.10;7.90;;;;;;2552731;56;1593;-86
2023/05/09 00:59:32;158743.00;0.53;274.87;0.00;0.00;0.62;;;;;18.10;8.00;;;;;;2552768;56;1731;-86
2023/05/09 01:02:02;76655.00;0.26;133.26;0.00;0.00;0.62;;;;;18.10;7.80;;;;;;2552788;56;957;-86
2023/05/09 01:04:29;161875.00;0.54;280.27;0.00;0.00;0.62;;;;;18.30;8.00;;;;;;2552553;56;1948;-87
2023/05/09 01:07:09;162892.00;0.54;282.02;0.00;0.00;0.62;;;;;18.50;6.90;;;;;;2552404;56;1536;-88
2023/05/09 01:09:43;93676.00;0.31;162.65;0.00;0.00;0.62;;;;;18.40;6.70;;;;;;2552423;56;1639;-86
2023/05/09 01:12:24;72832.00;0.24;126.65;0.00;0.00;0.62;;;;;18.30;7.60;;;;;;2552505;56;980;-85
2023/05/09 01:15:01;147850.00;0.49;256.10;0.00;0.00;0.62;;;;;18.20;7.50;;;;;;2552467;56;1245;-87
2023/05/09 01:17:50;56433.00;0.19;98.31;0.00;0.00;0.62;;;;;18.10;8.00;;;;;;2550248;56;1037;-86
2023/05/09 01:20:25;122474.00;0.41;212.35;0.00;0.00;0.62;;;;;18.10;7.50;;;;;;2552578;56;1061;-87
2023/05/09 01:23:05;115832.00;0.39;200.89;0.00;0.00;0.62;;;;;18.00;7.60;;;;;;2550242;56;985;-86
2023/05/09 01:25:49;125711.00;0.42;217.93;0.00;0.00;0.62;;;;;17.90;7.50;;;;;;2552363;56;1966;-87
2023/05/09 01:28:35;128958.00;0.43;223.53;0.00;0.00;0.62;;;;;18.10;7.60;;;;;;2550365;56;1175;-87
2023/05/09 01:31:08;118183.00;0.39;204.95;0.00;0.00;0.62;;;;;17.90;7.60;;;;;;2552561;56;1145;-87
2023/05/09 01:33:40;204852.00;0.68;354.28;0.00;0.00;0.62;;;;;17.90;8.40;;;;;;2552350;56;1440;-87
2023/05/09 01:36:14;206207.00;0.69;356.61;18388.00;0.06;32.48;;;;;17.80;8.50;;;;;;2552514;56;1084;-87
2023/05/09 01:38:44;33237.00;0.11;58.19;0.00;0.00;0.62;;;;;17.90;8.20;;;;;;2552541;56;937;-86
2023/05/09 01:41:15;108629.00;0.36;188.46;0.00;0.00;0.62;;;;;18.20;7.50;;;;;;2550222;56;964;-87
2023/05/09 01:43:45;107613.00;0.36;186.71;0.00;0.00;0.62;;;;;18.30;6.60;;;;;;2552446;56;1944;-85
2023/05/09 01:46:16;118414.00;0.39;205.35;0.00;0.00;0.62;;;;;18.50;5.90;;;;;;2550333;56;1121;-86
2023/05/09 01:48:45;128770.00;0.43;223.21;0.00;0.00;0.62;;;;;18.30;6.20;;;;;;2552563;56;1104;-86
2023/05/09 01:51:41;61927.00;0.21;107.81;0.00;0.00;0.62;;;;;18.10;8.00;;;;;;2550188;56;1061;-87
2023/05/09 01:54:09;47622.00;0.16;83.07;0.00;0.00;0.62;;;;;18.10;6.70;;;;;;2552447;56;1331;-87
2023/05/09 01:56:39;63685.00;0.21;110.85;0.00;0.00;0.62;;;;;18.30;6.60;;;;;;2552489;56;1099;-86
2023/05/09 01:59:08;148485.00;0.49;257.20;0.00;0.00;0.62;;;;;18.20;6.50;;;;;;2550364;56;1095;-90
2023/05/09 02:01:37;105711.00;0.35;183.43;0.00;0.00;0.62;;;;;17.90;7.00;;;;;;2552371;56;1611;-87
2023/05/09 02:04:05;100879.00;0.34;175.09;0.00;0.00;0.62;;;;;17.80;8.40;;;;;;2552391;56;1962;-85
2023/05/09 02:06:33;85883.00;0.29;149.20;0.00;0.00;0.62;;;;;17.90;6.60;;;;;;2552411;56;1669;-87
2023/05/09 02:09:02;110779.00;0.37;192.17;0.00;0.00;0.62;;;;;17.80;7.20;;;;;;2552445;56;1682;-86
2023/05/09 02:11:36;36960.00;0.12;64.63;0.00;0.00;0.62;;;;;17.60;7.80;;;;;;2550286;56;1105;-85
2023/05/09 02:14:02;199505.00;0.67;345.07;0.00;0.00;0.62;;;;;18.00;7.10;;;;;;2552393;56;1619;-84
2023/05/09 02:16:29;45885.00;0.15;80.07;0.00;0.00;0.62;;;;;18.20;5.90;;;;;;2552380;56;945;-85
2023/05/09 02:18:58;49525.00;0.17;86.36;0.00;0.00;0.62;;;;;18.40;5.00;;;;;;2550296;56;1170;-85
2023/05/09 02:21:25;64410.00;0.21;112.10;0.00;0.00;0.62;;;;;18.30;4.90;;;;;;2550334;56;1111;-86
2023/05/09 02:23:52;61449.00;0.20;106.98;0.00;0.00;0.62;;;;;18.40;5.00;;;;;;2552451;56;1961;-86
2023/05/09 02:26:19;88364.00;0.29;153.48;0.00;0.00;0.62;;;;;18.30;4.90;;;;;;2552460;56;1118;-85
2023/05/09 02:28:47;115030.00;0.38;199.51;0.00;0.00;0.62;;;;;18.50;5.10;;;;;;2552483;56;920;-86
2023/05/09 02:31:16;51982.00;0.17;90.61;0.00;0.00;0.62;;;;;18.60;4.60;;;;;;2552465;56;1713;-86
2023/05/09 02:33:43;80713.00;0.27;140.27;0.00;0.00;0.62;;;;;18.40;4.80;;;;;;2552527;56;1283;-86
2023/05/09 02:36:13;15079.00;0.05;26.75;0.00;0.00;0.62;;;;;18.60;4.00;;;;;;2550336;56;1080;-86
2023/05/09 02:38:41;84679.00;0.28;147.12;0.00;0.00;0.62;;;;;18.40;4.50;;;;;;2552348;56;1721;-86
2023/05/09 02:41:13;42131.00;0.14;73.58;0.00;0.00;0.62;;;;;18.10;4.80;;;;;;2550323;56;1055;-85
2023/05/09 02:43:39;85942.00;0.29;149.30;0.00;0.00;0.62;;;;;17.90;5.50;;;;;;2552384;56;1899;-85
2023/05/09 02:46:07;93235.00;0.31;161.89;0.00;0.00;0.62;;;;;17.90;5.00;;;;;;2550347;56;1127;-87
2023/05/09 02:48:33;107675.00;0.36;186.82;0.00;0.00;0.62;;;;;17.80;6.20;;;;;;2551255;40;3509;-87
2023/05/09 02:51:00;35714.00;0.12;62.47;0.00;0.00;0.62;;;;;18.00;5.90;;;;;;2550231;56;1010;-87
2023/05/09 02:53:29;101302.00;0.34;175.82;0.00;0.00;0.62;;;;;18.00;5.20;;;;;;2552375;56;1602;-87
2023/05/09 02:55:55;81845.00;0.27;142.22;0.00;0.00;0.62;;;;;18.00;4.90;;;;;;2552539;56;963;-87
2023/05/09 02:58:22;94362.00;0.31;163.84;0.00;0.00;0.62;;;;;17.80;6.70;;;;;;2552467;56;876;-86
2023/05/09 03:00:49;101783.00;0.34;176.65;0.00;0.00;0.62;;;;;17.90;5.30;;;;;;2550297;56;1053;-85
2023/05/09 03:03:17;82575.00;0.28;143.49;0.00;0.00;0.62;;;;;18.10;5.20;;;;;;2552387;56;1373;-87
2023/05/09 03:05:44;98168.00;0.33;170.41;0.00;0.00;0.62;;;;;18.10;5.20;;;;;;2552330;56;1903;-86
2023/05/09 03:08:11;31014.00;0.10;54.34;0.00;0.00;0.62;;;;;18.00;5.40;;;;;;2552431;56;1541;-88
2023/05/09 03:10:39;40882.00;0.14;71.41;0.00;0.00;0.62;;;;;18.00;6.20;;;;;;2550289;56;1030;-85
2023/05/09 03:13:06;38506.00;0.13;67.30;0.00;0.00;0.62;;;;;17.90;5.90;;;;;;2550209;56;1308;-87
2023/05/09 03:15:33;122764.00;0.41;212.85;0.00;0.00;0.62;;;;;18.20;5.70;;;;;;2550218;56;1040;-87
2023/05/09 03:17:59;102181.00;0.34;177.34;0.00;0.00;0.62;;;;;18.20;5.10;;;;;;2552437;56;1084;-85
2023/05/09 03:20:27;166372.00;0.55;288.02;0.00;0.00;0.62;;;;;18.00;5.80;;;;;;2552447;56;1132;-87
2023/05/09 03:22:53;105164.00;0.35;182.48;0.00;0.00;0.62;;;;;17.90;6.00;;;;;;2550182;56;1221;-86
2023/05/09 03:25:21;142241.00;0.47;246.43;0.00;0.00;0.62;;;;;18.20;4.90;;;;;;2551823;56;1890;-89
2023/05/09 03:27:49;206273.00;0.69;356.72;0.00;0.00;0.62;;;;;18.20;4.90;;;;;;2552063;56;1146;-87
2023/05/09 03:30:16;120996.00;0.40;209.80;0.00;0.00;0.62;;;;;17.80;5.40;;;;;;2550233;56;1193;-86
2023/05/09 03:32:43;86865.00;0.29;150.89;0.00;0.00;0.62;;;;;17.50;6.40;;;;;;2552425;56;1540;-86
2023/05/09 03:35:09;93644.00;0.31;162.60;0.00;0.00;0.62;;;;;17.40;7.00;;;;;;2552388;56;1278;-86
2023/05/09 03:37:36;92471.00;0.31;160.57;0.00;0.00;0.62;;;;;17.30;7.50;;;;;;2550272;56;1081;-86
2023/05/09 03:40:05;95647.00;0.32;166.06;0.00;0.00;0.62;;;;;17.30;7.80;;;;;;2550207;56;1083;-86
2023/05/09 03:42:32;74914.00;0.25;130.25;0.00;0.00;0.62;;;;;17.40;7.10;;;;;;2550261;56;1084;-86
2023/05/09 03:45:00;221636.00;0.74;383.16;0.00;0.00;0.62;;;;;17.60;7.30;;;;;;2550125;56;1902;-87
2023/05/09 03:47:28;163386.00;0.54;282.87;0.00;0.00;0.62;;;;;17.60;7.30;;;;;;2550278;56;1056;-86
2023/05/09 03:49:55;103221.00;0.34;179.13;0.00;0.00;0.62;;;;;17.60;7.00;;;;;;2548624;56;3665;-87
2023/05/09 03:52:22;64165.00;0.21;111.68;0.00;0.00;0.62;;;;;17.80;6.40;;;;;;2550223;56;1096;-86
2023/05/09 03:54:49;106794.00;0.36;185.30;0.00;0.00;0.62;;;;;18.10;6.30;;;;;;2552224;56;1185;-86
2023/05/09 03:57:19;101411.00;0.34;176.01;0.00;0.00;0.62;;;;;18.00;5.70;;;;;;2552365;56;1223;-87
2023/05/09 03:59:46;114528.00;0.38;198.64;0.00;0.00;0.62;;;;;18.00;7.00;;;;;;2552331;56;1583;-87
2023/05/09 04:02:18;10082.00;0.03;18.09;0.00;0.00;0.62;;;;;17.80;5.70;;;;;;2552337;56;1570;-87
2023/05/09 04:04:46;20609.00;0.07;36.32;0.00;0.00;0.62;;;;;17.70;5.90;;;;;;2552354;56;1906;-87
2023/05/09 04:07:13;71221.00;0.24;123.87;0.00;0.00;0.62;;;;;17.60;7.20;;;;;;2552427;56;951;-86
2023/05/09 04:09:41;33431.00;0.11;58.52;0.00;0.00;0.62;;;;;17.80;6.50;;;;;;2552409;56;927;-87
2023/05/09 04:12:09;77642.00;0.26;134.96;0.00;0.00;0.62;;;;;17.60;7.50;;;;;;2550276;56;1080;-86
2023/05/09 04:14:36;80174.00;0.27;139.34;0.00;0.00;0.62;;;;;17.50;6.80;;;;;;2550251;56;1379;-88
2023/05/09 04:17:02;47619.00;0.16;83.07;0.00;0.00;0.62;;;;;17.40;6.60;;;;;;2550204;56;1084;-87
2023/05/09 04:19:31;123068.00;0.41;213.37;0.00;0.00;0.62;;;;;17.50;7.30;;;;;;2552447;56;989;-88
2023/05/09 04:21:58;41362.00;0.14;72.24;0.00;0.00;0.62;;;;;17.50;7.90;;;;;;2550245;56;1093;-87
2023/05/09 04:24:25;102612.00;0.34;178.08;0.00;0.00;0.62;;;;;17.80;6.60;;;;;;2552170;56;1958;-87
2023/05/09 04:26:52;101718.00;0.34;176.54;0.00;0.00;0.62;;;;;18.00;5.70;;;;;;2550067;56;995;-88
2023/05/09 04:29:19;163142.00;0.54;282.45;0.00;0.00;0.62;;;;;17.90;5.70;;;;;;2552168;56;1439;-86
2023/05/09 04:31:46;11415.00;0.04;20.40;0.00;0.00;0.62;;;;;17.50;6.50;;;;;;2552312;56;1539;-87
2023/05/09 04:34:13;79361.00;0.26;137.93;0.00;0.00;0.62;;;;;17.60;8.00;;;;;;2550147;56;1363;-86
2023/05/09 04:36:41;70222.00;0.23;122.14;0.00;0.00;0.62;;;;;17.90;6.70;;;;;;2548871;56;3651;-86
2023/05/09 04:39:09;40482.00;0.13;70.72;0.00;0.00;0.62;;;;;17.80;7.20;;;;;;2550118;56;1030;-86
2023/05/09 04:41:36;30020.00;0.10;52.62;0.00;0.00;0.62;;;;;17.90;7.10;;;;;;2550390;56;1107;-87
2023/05/09 04:44:04;15946.00;0.05;28.25;0.00;0.00;0.62;;;;;17.80;7.50;;;;;;2550409;56;1366;-87
2023/05/09 04:46:31;63802.00;0.21;111.05;0.00;0.00;0.62;;;;;17.90;8.50;;;;;;2552561;56;1911;-89
2023/05/09 04:48:57;56751.00;0.19;98.86;0.00;0.00;0.62;;;;;17.80;7.90;;;;;;2552483;56;1457;-85
2023/05/09 04:51:27;59951.00;0.20;104.39;0.00;0.00;0.62;;;;;18.00;8.00;;;;;;2552576;56;955;-86
2023/05/09 04:53:57;220161.00;0.73;380.62;0.00;0.00;0.62;;;;;18.30;6.60;;;;;;2548867;56;3663;-86
2023/05/09 04:56:24;52498.00;0.17;91.51;0.00;0.00;0.62;;;;;18.30;6.60;;;;;;2550337;56;1068;-86
2023/05/09 04:58:51;31486.00;0.10;55.16;0.00;0.00;0.62;;;;;18.30;7.00;;;;;;2550469;56;1089;-87
2023/05/09 05:01:18;20933.00;0.07;36.89;0.00;0.00;0.62;;;;;18.10;8.00;;;;;;2550424;56;1104;-86
2023/05/09 05:03:45;51730.00;0.17;90.18;0.00;0.00;0.62;;;;;18.40;8.50;;;;;;2550398;56;1302;-86
2023/05/09 05:06:12;46494.00;0.15;81.12;0.00;0.00;0.62;;;;;18.40;7.90;;;;;;2550377;56;1941;-86
2023/05/09 05:08:39;43610.00;0.15;76.13;0.00;0.00;0.62;;;;;18.10;8.30;;;;;;2552595;56;991;-88
2023/05/09 05:11:08;147931.00;0.49;256.24;0.00;0.00;0.62;;;;;18.30;8.30;;;;;;2552587;56;948;-87
2023/05/09 05:13:35;137238.00;0.46;237.81;0.00;0.00;0.62;;;;;18.10;9.60;;;;;;2552482;56;1622;-88
2023/05/09 05:16:02;13932.00;0.05;24.76;0.00;0.00;0.62;;;;;18.00;9.10;;;;;;2550454;56;1029;-88
2023/05/09 05:18:29;40677.00;0.14;71.06;0.00;0.00;0.62;;;;;18.00;9.20;;;;;;2550402;56;1112;-87
2023/05/09 05:20:56;24354.00;0.08;42.81;0.00;0.00;0.62;;;;;18.10;9.20;;;;;;2552477;56;1686;-87
2023/05/09 05:23:23;14505.00;0.05;25.75;0.00;0.00;0.62;;;;;18.30;8.40;;;;;;2550249;56;1372;-87
2023/05/09 05:25:49;81035.00;0.27;140.83;0.00;0.00;0.62;;;;;18.30;8.30;;;;;;2552514;56;1949;-84
2023/05/09 05:28:18;28102.00;0.09;49.30;0.00;0.00;0.62;;;;;18.30;9.40;;;;;;2550456;56;1107;-86
2023/05/09 05:30:45;126013.00;0.42;218.45;0.00;0.00;0.62;;;;;18.40;8.90;;;;;;2550443;56;1051;-87
2023/05/09 05:33:11;74055.00;0.25;128.77;0.00;0.00;0.62;;;;;18.50;8.60;;;;;;2552497;56;1341;-86
2023/05/09 05:35:38;136598.00;0.46;236.71;0.00;0.00;0.62;;;;;18.50;7.30;;;;;;2550323;56;1021;-87
2023/05/09 05:38:06;30875.00;0.10;54.10;0.00;0.00;0.62;;;;;18.70;7.30;;;;;;2552409;56;933;-88
2023/05/09 05:40:33;107700.00;0.36;186.86;0.00;0.00;0.62;;;;;19.00;7.00;;;;;;2550336;56;1008;-87
2023/05/09 05:43:00;118744.00;0.40;205.92;0.00;0.00;0.62;;;;;18.70;7.60;;;;;;2550264;56;1369;-86
2023/05/09 05:45:29;67346.00;0.22;117.17;0.00;0.00;0.62;;;;;18.90;6.70;;;;;;2550183;56;1945;-86
2023/05/09 05:47:56;9060.00;0.03;16.32;0.00;0.00;0.62;;;;;18.70;7.50;;;;;;2550343;56;1080;-86
2023/05/09 05:50:23;130644.00;0.44;226.44;0.00;0.00;0.62;;;;;18.90;8.00;;;;;;2552467;56;997;-87
2023/05/09 05:52:50;44967.00;0.15;78.48;0.00;0.00;0.62;;;;;18.90;6.90;;;;;;2550327;56;1110;-86
2023/05/09 05:55:17;62976.00;0.21;109.62;0.00;0.00;0.62;;;;;19.00;6.00;;;;;;2552544;56;1386;-87
2023/05/09 05:57:44;46819.00;0.16;81.68;0.00;0.00;0.62;;;;;19.00;7.80;;;;;;2552537;56;1107;-85
2023/05/09 06:00:13;78746.00;0.26;136.87;0.00;0.00;0.62;;;;;18.80;7.90;;;;;;2552579;56;1220;-85
2023/05/09 06:02:44;39762.00;0.13;69.48;0.00;0.00;0.62;;;;;19.00;9.40;;;;;;2550258;56;1097;-86
2023/05/09 06:05:11;102783.00;0.34;178.38;0.00;0.00;0.62;;;;;19.40;9.60;;;;;;2552483;56;1956;-87
2023/05/09 06:07:39;117462984.00;391.54;65649624.00;0.00;0.00;0.62;;;;;20.10;7.20;;;;;;2550401;56;1065;-86
2023/05/09 06:10:08;11981.00;0.04;21.38;0.00;0.00;0.62;;;;;20.90;3.80;;;;;;2552460;56;1413;-86
2023/05/09 06:12:35;119667.00;0.40;207.51;0.00;0.00;0.62;;;;;21.40;3.10;;;;;;2552539;56;1113;-86
2023/05/09 06:15:03;52717.00;0.18;91.88;0.00;0.00;0.62;;;;;21.60;1.60;;;;;;2552442;56;2396;-87
2023/05/09 06:17:30;974.00;0.00;2.31;0.00;0.00;0.62;;;;;21.60;2.40;;;;;;2552538;56;1245;-85
2023/05/09 06:19:58;5275.00;0.02;9.76;0.00;0.00;0.62;;;;;22.00;1.00;;;;;;2550442;56;1073;-87
2023/05/09 06:22:25;69470.00;0.23;120.84;0.00;0.00;0.62;;;;;22.10;1.00;;;;;;2550330;56;1045;-86
2023/05/09 06:24:52;0.00;0.00;0.62;0.00;0.00;0.62;;;;;21.90;1.00;;;;;;2552423;56;1961;-87
2023/05/09 06:27:20;42794.00;0.14;74.72;0.00;0.00;0.62;;;;;22.10;1.10;;;;;;2550407;56;1084;-86
2023/05/09 06:29:47;34675.00;0.12;60.67;0.00;0.00;0.62;;;;;22.40;1.00;;;;;;2550337;56;1061;-85
2023/05/09 06:32:14;30085.00;0.10;52.73;0.00;0.00;0.62;;;;;22.80;1.00;;;;;;2550323;56;1098;-85
2023/05/09 06:34:41;81801.00;0.27;142.15;0.00;0.00;0.62;;;;;22.70;1.00;;;;;;2552402;56;1410;-87
2023/05/09 06:37:09;63075.00;0.21;109.79;0.00;0.00;0.62;;;;;22.70;1.00;;;;;;2552521;56;917;-87
2023/05/09 06:39:36;25232.00;0.08;44.33;0.00;0.00;0.62;;;;;22.70;1.00;;;;;;2550410;56;1112;-87
2023/05/09 06:42:02;21739.00;0.07;38.28;0.00;0.00;0.62;;;;;22.90;1.00;;;;;;2550397;56;1045;-87
2023/05/09 06:44:29;255522.00;0.85;441.45;52053.00;0.17;90.74;;;;;23.00;1.00;;;;;;2550376;56;1375;-87
2023/05/09 06:46:56;95902.00;0.32;166.50;0.00;0.00;0.62;;;;;23.20;1.00;;;;;;2550300;56;1896;-89
2023/05/09 06:49:23;72525.00;0.24;126.12;0.00;0.00;0.62;;;;;23.40;1.00;;;;;;2552582;56;936;-87
2023/05/09 06:51:50;126833.00;0.42;219.87;0.00;0.00;0.62;;;;;23.60;1.00;;;;;;2550407;56;1025;-87
2023/05/09 06:54:18;26645.00;0.09;46.78;0.00;0.00;0.62;;;;;23.40;1.00;;;;;;2550178;56;1532;-88
2023/05/09 06:56:45;0.00;0.00;0.62;0.00;0.00;0.62;;;;;23.90;1.00;;;;;;2552391;56;1707;-87
2023/05/09 06:59:12;9812.00;0.03;17.62;0.00;0.00;0.62;;;;;24.50;1.00;;;;;;2550407;56;1089;-87
2023/05/09 07:01:39;58779.00;0.20;102.37;0.00;0.00;0.62;;;;;26.10;1.00;;;;;;2550419;56;1095;-87
2023/05/09 07:04:06;26481.00;0.09;46.49;0.00;0.00;0.62;;;;;27.30;1.00;;;;;;2552304;56;1595;-88
2023/05/09 07:06:33;0.00;0.00;0.62;0.00;0.00;0.62;;;;;27.10;1.00;;;;;;2552517;56;1954;-87
2023/05/09 07:09:00;58552.00;0.20;101.97;0.00;0.00;0.62;;;;;27.40;1.00;;;;;;2552551;56;938;-87
2023/05/09 07:11:28;91194.00;0.30;158.37;0.00;0.00;0.62;;;;;27.50;1.00;;;;;;2552465;56;1646;-87
2023/05/09 07:13:55;0.00;0.00;0.62;0.00;0.00;0.62;;;;;27.60;1.00;;;;;;2552384;56;1535;-89
2023/05/09 07:16:22;32504.00;0.11;56.92;0.00;0.00;0.62;;;;;27.70;1.00;;;;;;2552511;56;965;-90
2023/05/09 07:18:49;156748.00;0.52;271.44;45120.00;0.15;78.75;;;;;28.00;1.00;;;;;;2550362;56;1049;-88
2023/05/09 07:21:16;27244.00;0.09;47.81;0.00;0.00;0.62;;;;;28.70;1.00;;;;;;2550338;56;1029;-90
2023/05/09 07:23:43;12771.00;0.04;22.75;0.00;0.00;0.62;;;;;28.30;1.00;;;;;;2552487;56;1361;-88
2023/05/09 07:26:10;31373.00;0.10;54.96;0.00;0.00;0.62;;;;;29.30;1.00;;;;;;2550118;56;1940;-88
2023/05/09 07:28:38;78141.00;0.26;135.83;0.00;0.00;0.62;;;;;30.00;1.00;;;;;;2552359;56;1552;-89
2023/05/09 07:31:06;169215.00;0.56;292.91;0.00;0.00;0.62;;;;;29.20;1.00;;;;;;2552434;56;1622;-89
2023/05/09 07:33:33;160077.00;0.53;277.17;0.00;0.00;0.62;;;;;28.30;1.00;;;;;;2552403;56;2356;-88
2023/05/09 07:36:00;66213.00;0.22;115.22;0.00;0.00;0.62;;;;;28.50;1.00;;;;;;2552499;56;973;-86
2023/05/09 07:38:27;8078.00;0.03;14.62;0.00;0.00;0.62;;;;;28.30;1.00;;;;;;2552602;56;1038;-87
2023/05/09 07:40:53;159050.00;0.53;275.40;0.00;0.00;0.62;;;;;28.10;1.00;;;;;;2552491;56;1964;-88
2023/05/09 07:43:21;104753.00;0.35;181.78;23126.00;0.08;40.68;;;;;28.50;1.00;;;;;;2552400;56;1834;-88
2023/05/09 07:45:49;58388.00;0.19;101.69;0.00;0.00;0.62;;;;;29.20;1.00;;;;;;2552463;56;1949;-88
2023/05/09 07:48:16;217823.00;0.73;376.60;0.00;0.00;0.62;;;;;29.60;1.00;;;;;;2550329;56;1092;-87
2023/05/09 07:50:43;29430.00;0.10;51.60;0.00;0.00;0.62;;;;;30.50;1.00;;;;;;2552497;56;973;-88
2023/05/09 07:53:09;53295.00;0.18;92.88;0.00;0.00;0.62;;;;;30.50;1.00;;;;;;2551130;56;1495;-88
2023/05/09 07:55:36;116215.00;0.39;201.55;0.00;0.00;0.62;;;;;31.00;1.00;;;;;;2552463;56;1624;-88
2023/05/09 07:58:03;0.00;0.00;0.62;0.00;0.00;0.62;;;;;30.40;1.00;;;;;;2550309;56;1060;-87
2023/05/09 08:00:30;252704.00;0.84;436.60;116514.00;0.39;202.07;;;;;30.30;1.00;;;;;;2550401;56;1107;-87
2023/05/09 08:02:58;58985.00;0.20;102.72;0.00;0.00;0.62;;;;;30.50;1.00;;;;;;2552543;56;995;-89
2023/05/09 08:05:28;13776.00;0.05;24.49;0.00;0.00;0.62;;;;;30.50;1.00;;;;;;2552457;56;1910;-88
2023/05/09 08:07:55;32934.00;0.11;57.66;0.00;0.00;0.62;;;;;30.30;1.00;;;;;;2552521;56;1159;-87
2023/05/09 08:10:22;459.00;0.00;1.42;0.00;0.00;0.62;;;;;28.90;1.00;;;;;;2550159;56;1031;-88
2023/05/09 08:12:49;10254.00;0.03;18.39;0.00;0.00;0.62;;;;;28.80;1.00;;;;;;2552423;56;1556;-85
2023/05/09 08:15:16;146910.00;0.49;254.48;0.00;0.00;0.62;;;;;27.40;1.00;;;;;;2550315;56;1338;-87
2023/05/09 08:17:43;9976.00;0.03;17.91;0.00;0.00;0.62;;;;;26.90;1.00;;;;;;2550483;56;1008;-87
2023/05/09 08:20:12;0.00;0.00;0.62;0.00;0.00;0.62;;;;;26.80;1.00;;;;;;2552672;56;1026;-88
2023/05/09 08:22:40;16371.00;0.05;28.99;0.00;0.00;0.62;;;;;26.10;1.00;;;;;;2552583;56;1524;-88
2023/05/09 08:25:08;88614.00;0.30;153.91;0.00;0.00;0.62;;;;;26.00;1.00;;;;;;2551465;40;3539;-87
2023/05/09 08:27:35;144908.00;0.48;251.03;0.00;0.00;0.62;;;;;25.90;1.00;;;;;;2552628;56;1951;-87
2023/05/09 08:30:02;137585.00;0.46;238.41;0.00;0.00;0.62;;;;;25.90;1.00;;;;;;2550334;56;973;-87
2023/05/09 08:32:28;106877.00;0.36;185.44;0.00;0.00;0.62;;;;;26.30;1.00;;;;;;2550479;56;1029;-86
2023/05/09 08:34:55;120867.00;0.40;209.58;0.00;0.00;0.62;;;;;26.80;1.00;;;;;;2552588;56;1590;-89
2023/05/09 08:37:24;26603.00;0.09;46.70;0.00;0.00;0.62;;;;;27.60;1.00;;;;;;2550500;56;1083;-89
2023/05/09 08:39:51;146662.00;0.49;254.05;0.00;0.00;0.62;;;;;27.80;1.00;;;;;;2552588;56;1757;-86
2023/05/09 08:42:21;70966.00;0.24;123.43;0.00;0.00;0.62;;;;;27.80;1.00;;;;;;2552600;56;979;-88
2023/05/09 08:44:48;95074.00;0.32;165.07;0.00;0.00;0.62;;;;;27.80;1.00;;;;;;2552487;56;1481;-87
2023/05/09 08:47:16;107849.00;0.36;187.12;0.00;0.00;0.62;;;;;28.20;1.00;;;;;;2552511;56;1899;-87
2023/05/09 08:49:44;29401.00;0.10;51.55;0.00;0.00;0.62;;;;;27.40;1.00;;;;;;2552451;56;1072;-87
2023/05/09 08:52:11;87713.00;0.29;152.36;0.00;0.00;0.62;;;;;27.00;1.00;;;;;;2550443;56;1100;-88
2023/05/09 08:54:40;53046.00;0.18;92.45;0.00;0.00;0.62;;;;;27.00;1.00;;;;;;2552557;56;1336;-88
2023/05/09 08:57:07;125546.00;0.42;217.65;0.00;0.00;0.62;;;;;26.90;1.00;;;;;;2552482;56;1578;-88
2023/05/09 08:59:38;82103.00;0.27;142.67;0.00;0.00;0.62;;;;;27.20;1.00;;;;;;2552541;56;923;-88
2023/05/09 09:02:07;182119.00;0.61;315.14;0.00;0.00;0.62;;;;;27.30;1.00;;;;;;2552334;56;1628;-87
2023/05/09 09:04:34;302488.00;1.01;522.20;0.00;0.00;0.62;;;;;27.30;1.00;;;;;;2552387;56;1567;-88
2023/05/09 09:07:06;5734.00;0.02;10.56;0.00;0.00;0.62;;;;;27.30;1.00;;;;;;2550305;56;1955;-87
2023/05/09 09:09:36;154591.00;0.52;267.72;0.00;0.00;0.62;;;;;27.40;1.00;;;;;;2552643;56;1215;-88
2023/05/09 09:12:09;5306.00;0.02;9.82;0.00;0.00;0.62;;;;;27.30;1.00;;;;;;2550433;56;971;-87
2023/05/09 09:14:39;216974.00;0.72;375.14;0.00;0.00;0.62;;;;;26.90;1.00;;;;;;2552501;56;1310;-87
2023/05/09 09:17:09;93719.00;0.31;162.73;0.00;0.00;0.62;;;;;26.60;1.00;;;;;;2550375;56;1023;-87
2023/05/09 09:19:40;59857.00;0.20;104.23;0.00;0.00;0.62;;;;;25.90;1.00;;;;;;2552545;56;1631;-89
2023/05/09 09:22:11;86161.00;0.29;149.68;0.00;0.00;0.62;;;;;26.10;1.00;;;;;;2552497;56;938;-87
2023/05/09 09:24:38;122737.00;0.41;212.80;25208.00;0.08;44.29;;;;;26.10;1.00;;;;;;2552473;56;1724;-87
2023/05/09 09:27:07;95934.00;0.32;166.55;0.00;0.00;0.62;;;;;26.00;1.00;;;;;;2550187;56;1940;-87
2023/05/09 09:29:34;106162.00;0.35;184.21;0.00;0.00;0.62;;;;;26.00;1.00;;;;;;2552504;56;1117;-87
2023/05/09 09:32:03;75877.00;0.25;131.91;0.00;0.00;0.62;;;;;26.30;1.00;;;;;;2552554;56;1688;-88
2023/05/09 09:34:30;65393.00;0.22;113.80;0.00;0.00;0.62;;;;;26.30;1.00;;;;;;2552564;56;1320;-87
2023/05/09 09:36:58;49818.00;0.17;86.87;0.00;0.00;0.62;;;;;26.50;1.00;;;;;;2550427;56;1056;-88
2023/05/09 09:39:25;15060.00;0.05;26.71;0.00;0.00;0.62;;;;;26.30;1.00;;;;;;2550459;56;1045;-87
2023/05/09 09:41:52;126554.00;0.42;219.39;0.00;0.00;0.62;;;;;26.20;1.00;;;;;;2552475;56;1641;-89
2023/05/09 09:44:22;174948.00;0.58;302.79;0.00;0.00;0.62;;;;;26.40;1.00;;;;;;2552466;56;1742;-87
2023/05/09 09:46:50;32688.00;0.11;57.24;0.00;0.00;0.62;;;;;26.70;1.00;;;;;;2550317;56;1906;-86
2023/05/09 09:49:19;137170.00;0.46;237.69;0.00;0.00;0.62;;;;;26.10;1.00;;;;;;2549651;56;3686;-86
2023/05/09 09:51:50;102050.00;0.34;177.11;0.00;0.00;0.62;;;;;25.60;1.00;;;;;;2552335;56;1703;-88
2023/05/09 09:54:17;49456.00;0.16;86.25;0.00;0.00;0.62;;;;;25.90;1.00;;;;;;2550301;56;1327;-87
2023/05/09 09:56:46;103015.00;0.34;178.78;0.00;0.00;0.62;;;;;25.90;1.00;;;;;;2550462;56;1104;-87
2023/05/09 09:59:15;91421.00;0.30;158.76;0.00;0.00;0.62;;;;;25.70;1.00;;;;;;2552556;56;1508;-85
2023/05/09 10:02:00;66128.00;0.22;115.07;0.00;0.00;0.62;;;;;25.90;1.00;;;;;;2552584;56;972;-87
2023/05/09 10:04:30;27316.00;0.09;47.94;0.00;0.00;0.62;;;;;26.00;1.00;;;;;;2552448;56;1683;-87
2023/05/09 10:06:58;136858.00;0.46;237.15;0.00;0.00;0.62;;;;;26.30;1.00;;;;;;2550338;56;1942;-87
2023/05/09 10:09:27;58739.00;0.20;102.30;0.00;0.00;0.62;;;;;26.10;1.00;;;;;;2552473;56;1504;-87
2023/05/09 10:11:56;43648.00;0.15;76.20;0.00;0.00;0.62;;;;;25.90;1.00;;;;;;2552502;56;969;-88